Time;durP1;ratioP1;P1;durP2;ratioP2;P2;SDS_P1;SDS_P2;PMS_P1;PMS_P2;Temp;Humidity;BMP_temperature;BMP_pressure;BME280_temperature;BME280_humidity;BME280_pressure;Samples;Min_cycle;Max_cycle;Signal;HPM_P1;HPM_P2
2022/01/06 00:02:25;;;;;;;21.63;10.48;;;;;;;;;;5125402;27;20019;-47
2022/01/06 00:04:50;;;;;;;13.45;9.95;;;;;;;;;;5124892;27;20518;-46
2022/01/06 00:07:15;;;;;;;17.08;10.82;;;;;;;;;;5125110;27;20102;-49
2022/01/06 00:09:41;;;;;;;16.77;13.05;;;;;;;;;;5125785;27;20127;-45
2022/01/06 00:12:09;;;;;;;10.10;8.23;;;;;;;;;;5124386;27;20474;-47
2022/01/06 00:17:20;;;;;;;10.65;8.80;;;;;;;;;;5124151;27;20023;-43
2022/01/06 00:25:18;;;;;;;12.13;8.52;;;;;;;;;;5125079;27;20130;-47
2022/01/06 00:27:43;;;;;;;21.75;15.23;;;;;;;;;;5124946;27;20482;-48
2022/01/06 00:30:09;;;;;;;17.73;13.77;;;;;;;;;;5125136;27;20022;-49
2022/01/06 00:32:34;;;;;;;17.27;12.50;;;;;;;;;;5123119;27;20545;-47
2022/01/06 00:34:59;;;;;;;15.98;7.28;;;;;;;;;;5124772;27;20509;-45
2022/01/06 00:37:24;;;;;;;9.18;6.05;;;;;;;;;;5124774;27;20026;-44
2022/01/06 00:39:50;;;;;;;11.45;9.52;;;;;;;;;;5123598;27;20433;-45
2022/01/06 00:42:16;;;;;;;12.05;10.77;;;;;;;;;;5123502;27;20755;-44
2022/01/06 00:44:42;;;;;;;10.40;8.43;;;;;;;;;;5122873;27;20034;-46
2022/01/06 00:47:07;;;;;;;10.77;8.13;;;;;;;;;;5125096;27;20019;-45
2022/01/06 00:49:32;;;;;;;10.95;7.88;;;;;;;;;;5124380;27;20030;-43
2022/01/06 00:51:58;;;;;;;13.82;11.95;;;;;;;;;;5124113;27;20061;-45
2022/01/06 00:54:23;;;;;;;20.10;13.82;;;;;;;;;;5123229;28;20744;-45
2022/01/06 00:56:48;;;;;;;17.27;11.57;;;;;;;;;;5124280;28;20098;-44
2022/01/06 00:59:14;;;;;;;14.00;9.38;;;;;;;;;;5122641;28;20030;-44
2022/01/06 01:01:39;;;;;;;15.77;7.43;;;;;;;;;;5124771;28;20015;-46
2022/01/06 01:04:04;;;;;;;17.08;7.13;;;;;;;;;;5124122;27;20409;-47
2022/01/06 01:06:30;;;;;;;8.73;6.90;;;;;;;;;;5124320;27;20019;-44
2022/01/06 01:08:55;;;;;;;14.02;10.70;;;;;;;;;;5125594;28;20029;-47
2022/01/06 01:11:20;;;;;;;21.10;15.57;;;;;;;;;;5124248;28;20034;-45
2022/01/06 01:13:56;;;;;;;21.75;14.63;;;;;;;;;;5125648;28;20516;-45
2022/01/06 01:16:29;;;;;;;20.60;14.75;;;;;;;;;;5123394;28;20153;-49
2022/01/06 01:18:58;;;;;;;20.08;13.68;;;;;;;;;;5121397;28;20359;-45
2022/01/06 01:21:27;;;;;;;18.08;12.98;;;;;;;;;;5124934;28;20063;-49
2022/01/06 01:23:56;;;;;;;14.75;11.25;;;;;;;;;;5124645;28;20023;-45
2022/01/06 01:26:22;;;;;;;19.90;13.15;;;;;;;;;;5124706;27;20007;-43
2022/01/06 01:28:47;;;;;;;12.63;10.90;;;;;;;;;;5128505;27;20029;-44
2022/01/06 01:33:49;;;;;;;16.48;9.50;;;;;;;;;;5128592;27;20110;-45
2022/01/06 01:36:14;;;;;;;17.23;9.15;;;;;;;;;;5128845;27;20074;-46
2022/01/06 01:38:40;;;;;;;15.65;9.07;;;;;;;;;;5128471;27;20078;-50
2022/01/06 01:41:06;;;;;;;11.95;10.02;;;;;;;;;;5129236;27;20031;-46
2022/01/06 01:43:31;;;;;;;17.45;10.07;;;;;;;;;;5129597;27;20023;-44
2022/01/06 01:46:09;;;;;;;12.20;10.27;;;;;;;;;;5128509;27;20695;-45
2022/01/06 01:48:35;;;;;;;18.25;11.00;;;;;;;;;;5127670;27;20034;-46
2022/01/06 01:51:00;;;;;;;10.70;7.13;;;;;;;;;;5128075;27;20019;-43
2022/01/06 01:53:26;;;;;;;8.98;5.82;;;;;;;;;;5126514;27;20527;-43
2022/01/06 01:55:51;;;;;;;12.85;5.78;;;;;;;;;;5126693;27;20027;-44
2022/01/06 01:58:17;;;;;;;12.40;6.80;;;;;;;;;;5126679;27;20051;-46
2022/01/06 02:00:42;;;;;;;8.25;7.07;;;;;;;;;;5129116;27;20030;-44
2022/01/06 02:03:07;;;;;;;9.73;6.93;;;;;;;;;;5127979;27;20106;-43
2022/01/06 02:05:33;;;;;;;16.13;10.18;;;;;;;;;;5125754;27;20395;-46
2022/01/06 02:07:59;;;;;;;24.55;14.23;;;;;;;;;;5126788;27;20090;-44
2022/01/06 02:10:25;;;;;;;35.97;20.42;;;;;;;;;;5127510;27;20023;-44
2022/01/06 02:12:53;;;;;;;30.77;16.30;;;;;;;;;;5127195;27;20462;-43
2022/01/06 02:15:19;;;;;;;18.92;9.98;;;;;;;;;;5126524;27;20076;-45
2022/01/06 02:17:44;;;;;;;21.73;12.60;;;;;;;;;;5128828;27;20031;-47
2022/01/06 02:20:16;;;;;;;30.23;13.05;;;;;;;;;;5126853;27;20066;-43
2022/01/06 02:22:42;;;;;;;20.38;13.10;;;;;;;;;;5127538;27;20084;-43
2022/01/06 02:25:12;;;;;;;12.45;10.95;;;;;;;;;;5127446;27;20015;-45
2022/01/06 02:27:37;;;;;;;15.02;13.07;;;;;;;;;;5127105;27;20401;-47
2022/01/06 02:30:03;;;;;;;15.07;10.43;;;;;;;;;;5126955;27;20499;-43
2022/01/06 02:32:28;;;;;;;10.02;8.68;;;;;;;;;;5126498;27;20019;-44
2022/01/06 02:34:54;;;;;;;7.05;5.13;;;;;;;;;;5126134;27;20019;-44
2022/01/06 02:37:19;;;;;;;23.42;14.18;;;;;;;;;;5127218;27;20420;-44
2022/01/06 02:39:44;;;;;;;16.45;10.93;;;;;;;;;;5124318;27;20178;-44
2022/01/06 02:42:10;;;;;;;17.70;8.73;;;;;;;;;;5128693;27;20015;-47
2022/01/06 02:44:38;;;;;;;16.70;4.93;;;;;;;;;;5129843;27;20015;-43
2022/01/06 02:47:05;;;;;;;14.52;5.68;;;;;;;;;;5128589;27;20019;-43
2022/01/06 02:49:30;;;;;;;12.20;4.22;;;;;;;;;;5128684;27;20015;-44
2022/01/06 02:51:58;;;;;;;5.43;3.78;;;;;;;;;;5128882;27;20522;-44
2022/01/06 02:54:24;;;;;;;9.57;8.35;;;;;;;;;;5128570;27;20023;-44
2022/01/06 02:56:49;;;;;;;8.98;6.35;;;;;;;;;;5128985;27;20018;-47
2022/01/06 02:59:15;;;;;;;10.30;7.03;;;;;;;;;;5128639;27;20015;-45
2022/01/06 03:01:41;;;;;;;6.57;4.68;;;;;;;;;;5129108;27;20088;-48
2022/01/06 03:04:07;;;;;;;20.33;9.85;;;;;;;;;;5129139;27;20034;-47
2022/01/06 03:06:32;;;;;;;8.27;5.88;;;;;;;;;;5128329;27;20007;-49
2022/01/06 03:08:58;;;;;;;7.20;3.28;;;;;;;;;;5129259;27;20115;-50
2022/01/06 03:11:25;;;;;;;7.80;6.10;;;;;;;;;;5127660;27;20118;-48
2022/01/06 03:13:52;;;;;;;11.23;4.90;;;;;;;;;;5128518;27;20039;-47
2022/01/06 03:16:17;;;;;;;12.65;4.20;;;;;;;;;;5129257;27;20107;-44
2022/01/06 03:18:42;;;;;;;7.22;5.88;;;;;;;;;;5128790;27;20094;-45
2022/01/06 03:21:07;;;;;;;5.97;4.38;;;;;;;;;;5128642;27;20057;-47
2022/01/06 03:23:33;;;;;;;3.95;3.03;;;;;;;;;;5128177;27;20539;-45
2022/01/06 03:25:58;;;;;;;3.50;2.55;;;;;;;;;;5128371;27;20030;-47
2022/01/06 03:28:23;;;;;;;16.40;11.13;;;;;;;;;;5129233;27;20045;-47
2022/01/06 03:30:48;;;;;;;15.88;7.50;;;;;;;;;;5127912;27;20015;-49
2022/01/06 03:33:14;;;;;;;4.63;2.72;;;;;;;;;;5128426;27;20103;-48
2022/01/06 03:35:39;;;;;;;8.85;5.50;;;;;;;;;;5129638;27;20015;-47
2022/01/06 03:38:04;;;;;;;9.52;3.47;;;;;;;;;;5128574;27;20453;-44
2022/01/06 03:40:30;;;;;;;6.45;3.60;;;;;;;;;;5128246;27;20085;-44
2022/01/06 03:42:55;;;;;;;10.93;2.80;;;;;;;;;;5128604;27;20027;-43
2022/01/06 03:45:20;;;;;;;6.50;3.47;;;;;;;;;;5128260;27;20038;-47
2022/01/06 03:47:46;;;;;;;8.38;4.38;;;;;;;;;;5128225;27;20197;-46
2022/01/06 03:50:13;;;;;;;6.35;4.25;;;;;;;;;;5126942;27;20015;-43
2022/01/06 03:52:38;;;;;;;6.13;4.15;;;;;;;;;;5128020;27;20019;-47
2022/01/06 03:55:05;;;;;;;5.57;3.35;;;;;;;;;;5128391;27;20516;-44
2022/01/06 03:57:31;;;;;;;4.60;3.15;;;;;;;;;;5127606;27;20019;-44
2022/01/06 03:59:56;;;;;;;12.48;5.32;;;;;;;;;;5128575;27;20091;-45
2022/01/06 04:02:21;;;;;;;6.25;3.33;;;;;;;;;;5128717;27;20031;-45
2022/01/06 04:04:47;;;;;;;11.52;4.93;;;;;;;;;;5127704;27;20030;-45
2022/01/06 04:07:12;;;;;;;10.15;2.75;;;;;;;;;;5127419;27;20030;-45
2022/01/06 04:09:37;;;;;;;2.38;1.20;;;;;;;;;;5128193;27;20034;-48
2022/01/06 04:12:03;;;;;;;9.48;4.88;;;;;;;;;;5127004;27;20423;-47
2022/01/06 04:14:28;;;;;;;7.88;3.22;;;;;;;;;;5127086;27;20027;-48
2022/01/06 04:16:58;;;;;;;3.38;1.77;;;;;;;;;;5127850;27;20030;-45
2022/01/06 04:19:24;;;;;;;2.83;1.23;;;;;;;;;;5127971;27;20023;-48
2022/01/06 04:21:49;;;;;;;6.25;2.28;;;;;;;;;;5127626;27;20498;-46
2022/01/06 04:24:14;;;;;;;8.52;2.58;;;;;;;;;;5126380;27;20115;-45
2022/01/06 04:26:40;;;;;;;7.38;4.13;;;;;;;;;;5128145;27;20382;-44
2022/01/06 04:29:05;;;;;;;8.77;4.57;;;;;;;;;;5127611;27;20470;-48
2022/01/06 04:31:30;;;;;;;16.15;6.45;;;;;;;;;;5127240;27;20031;-45
2022/01/06 04:33:56;;;;;;;13.68;6.40;;;;;;;;;;5127458;27;20034;-46
2022/01/06 04:36:21;;;;;;;9.68;3.75;;;;;;;;;;5128184;27;20026;-44
2022/01/06 04:38:46;;;;;;;10.18;4.03;;;;;;;;;;5127279;27;20076;-45
2022/01/06 04:41:11;;;;;;;6.68;3.35;;;;;;;;;;5127876;27;20030;-45
2022/01/06 04:43:37;;;;;;;8.35;3.17;;;;;;;;;;5127268;27;20115;-45
2022/01/06 04:46:02;;;;;;;5.25;2.20;;;;;;;;;;5126616;27;20023;-45
2022/01/06 04:48:28;;;;;;;9.25;2.00;;;;;;;;;;5126970;27;20034;-47
2022/01/06 04:50:54;;;;;;;6.00;1.67;;;;;;;;;;5127331;27;20740;-49
2022/01/06 04:53:19;;;;;;;2.88;1.38;;;;;;;;;;5128645;27;20027;-45
2022/01/06 04:55:44;;;;;;;5.80;2.85;;;;;;;;;;5127763;28;20026;-47
2022/01/06 04:58:10;;;;;;;2.15;1.20;;;;;;;;;;5126812;28;20415;-44
2022/01/06 05:00:35;;;;;;;2.05;1.13;;;;;;;;;;5127345;28;20130;-42
2022/01/06 05:03:00;;;;;;;5.82;1.63;;;;;;;;;;5129844;27;20382;-44
2022/01/06 05:05:25;;;;;;;3.10;1.67;;;;;;;;;;5131754;27;20026;-46
2022/01/06 05:07:51;;;;;;;10.18;1.48;;;;;;;;;;5131256;27;20710;-43
2022/01/06 05:10:16;;;;;;;3.35;1.15;;;;;;;;;;5131823;27;20050;-47
2022/01/06 05:12:42;;;;;;;5.25;1.52;;;;;;;;;;5130472;27;20023;-45
2022/01/06 05:15:08;;;;;;;3.45;1.70;;;;;;;;;;5131971;27;20030;-47
2022/01/06 05:17:33;;;;;;;6.60;1.55;;;;;;;;;;5130915;27;20474;-50
2022/01/06 05:19:59;;;;;;;2.17;1.25;;;;;;;;;;5131492;27;20051;-45
2022/01/06 05:22:24;;;;;;;4.10;1.50;;;;;;;;;;5131759;27;20749;-46
2022/01/06 05:24:50;;;;;;;1.98;1.30;;;;;;;;;;5129854;27;20676;-45
2022/01/06 05:27:15;;;;;;;1.92;0.95;;;;;;;;;;5131990;27;20063;-44
2022/01/06 05:29:40;;;;;;;7.82;0.93;;;;;;;;;;5130476;27;20038;-43
2022/01/06 05:32:06;;;;;;;1.95;0.43;;;;;;;;;;5130518;27;20426;-43
2022/01/06 05:34:31;;;;;;;3.22;1.77;;;;;;;;;;5129922;27;20099;-43
2022/01/06 05:36:56;;;;;;;4.90;2.58;;;;;;;;;;5131361;27;20051;-46
2022/01/06 05:39:22;;;;;;;4.60;2.40;;;;;;;;;;5129853;27;20064;-46
2022/01/06 05:41:47;;;;;;;3.30;1.60;;;;;;;;;;5130090;27;20080;-46
2022/01/06 05:44:12;;;;;;;3.80;1.70;;;;;;;;;;5129937;27;20019;-45
2022/01/06 05:46:38;;;;;;;3.33;0.73;;;;;;;;;;5129433;27;20080;-45
2022/01/06 05:49:03;;;;;;;2.65;0.95;;;;;;;;;;5130163;27;20007;-47
2022/01/06 05:51:29;;;;;;;9.85;1.55;;;;;;;;;;5128894;27;20103;-43
2022/01/06 05:53:54;;;;;;;2.58;1.45;;;;;;;;;;5129501;27;20011;-46
2022/01/06 05:56:20;;;;;;;7.35;1.25;;;;;;;;;;5129630;27;20027;-46
2022/01/06 05:58:45;;;;;;;1.70;1.15;;;;;;;;;;5128825;27;20019;-45
2022/01/06 06:01:10;;;;;;;6.57;1.33;;;;;;;;;;5130300;27;20042;-43
2022/01/06 06:03:36;;;;;;;5.90;1.67;;;;;;;;;;5111711;27;20011;-46
2022/01/06 06:06:01;;;;;;;2.70;1.67;;;;;;;;;;5129799;27;20054;-46
2022/01/06 06:08:26;;;;;;;7.75;1.92;;;;;;;;;;5129881;27;20038;-46
2022/01/06 06:10:52;;;;;;;4.43;1.77;;;;;;;;;;5128352;27;20031;-44
2022/01/06 06:13:17;;;;;;;7.13;2.42;;;;;;;;;;5110433;27;20023;-45
2022/01/06 06:15:42;;;;;;;2.92;1.42;;;;;;;;;;5130051;27;20384;-46
2022/01/06 06:18:12;;;;;;;5.85;1.75;;;;;;;;;;5130404;27;20109;-44
2022/01/06 06:20:37;;;;;;;4.72;1.90;;;;;;;;;;5129983;27;20055;-44
2022/01/06 06:23:02;;;;;;;3.15;1.42;;;;;;;;;;5129806;27;20046;-45
2022/01/06 06:25:28;;;;;;;3.92;1.58;;;;;;;;;;5129209;27;20019;-43
2022/01/06 06:27:53;;;;;;;7.40;3.00;;;;;;;;;;5129497;27;20106;-46
2022/01/06 06:30:19;;;;;;;8.65;1.95;;;;;;;;;;5129548;27;20015;-45
2022/01/06 06:32:44;;;;;;;9.73;6.85;;;;;;;;;;5127458;27;20023;-48
2022/01/06 06:35:10;;;;;;;10.38;7.70;;;;;;;;;;5129889;27;20026;-43
2022/01/06 06:37:35;;;;;;;18.63;10.95;;;;;;;;;;5130324;27;20022;-46
2022/01/06 06:40:00;;;;;;;10.45;6.70;;;;;;;;;;5129909;27;20023;-45
2022/01/06 06:42:26;;;;;;;13.45;5.72;;;;;;;;;;5129444;27;20136;-46
2022/01/06 06:44:51;;;;;;;15.43;9.10;;;;;;;;;;5129521;27;20022;-43
2022/01/06 06:47:17;;;;;;;11.15;7.00;;;;;;;;;;5130047;27;20041;-42
2022/01/06 06:49:43;;;;;;;12.85;5.70;;;;;;;;;;5126434;27;20496;-43
2022/01/06 06:52:08;;;;;;;18.92;6.45;;;;;;;;;;5129127;27;20090;-47
2022/01/06 06:54:33;;;;;;;14.25;7.63;;;;;;;;;;5129339;27;20470;-42
2022/01/06 06:56:59;;;;;;;11.20;7.07;;;;;;;;;;5126965;27;20511;-46
2022/01/06 06:59:24;;;;;;;6.95;2.53;;;;;;;;;;5129772;27;20050;-48
2022/01/06 07:01:49;;;;;;;13.27;4.07;;;;;;;;;;5110834;27;20473;-43
2022/01/06 07:04:14;;;;;;;8.27;4.57;;;;;;;;;;5129105;27;20023;-45
2022/01/06 07:06:40;;;;;;;5.10;2.55;;;;;;;;;;5128902;27;20011;-46
2022/01/06 07:09:05;;;;;;;15.50;6.07;;;;;;;;;;5129574;27;20106;-45
2022/01/06 07:11:31;;;;;;;8.32;3.90;;;;;;;;;;5128284;27;20023;-44
2022/01/06 07:13:56;;;;;;;7.10;2.33;;;;;;;;;;5129089;27;20388;-43
2022/01/06 07:16:21;;;;;;;5.30;3.08;;;;;;;;;;5129156;27;20026;-45
2022/01/06 07:18:47;;;;;;;2.90;2.45;;;;;;;;;;5128602;27;20015;-45
2022/01/06 07:21:12;;;;;;;12.57;3.05;;;;;;;;;;5128123;27;20134;-44
2022/01/06 07:23:37;;;;;;;10.93;3.10;;;;;;;;;;5126868;27;20442;-43
2022/01/06 07:26:03;;;;;;;4.20;3.00;;;;;;;;;;5129043;27;20045;-47
2022/01/06 07:28:28;;;;;;;7.50;5.45;;;;;;;;;;5128825;27;20446;-45
2022/01/06 07:30:53;;;;;;;16.40;11.85;;;;;;;;;;5128631;27;20027;-46
2022/01/06 07:33:18;;;;;;;29.50;8.82;;;;;;;;;;5128026;27;20015;-43
2022/01/06 07:35:44;;;;;;;13.45;10.55;;;;;;;;;;5128773;27;20102;-48
2022/01/06 07:38:09;;;;;;;104.72;69.13;;;;;;;;;;5128332;27;20031;-45
2022/01/06 07:40:34;;;;;;;35.42;17.58;;;;;;;;;;5127600;27;20059;-43
2022/01/06 07:43:00;;;;;;;25.27;17.55;;;;;;;;;;5128341;27;20099;-46
2022/01/06 07:45:25;;;;;;;29.90;17.58;;;;;;;;;;5128657;27;20068;-44
2022/01/06 07:48:16;;;;;;;24.73;18.40;;;;;;;;;;5128974;27;20039;-43
2022/01/06 07:50:39;;;;;;;16.63;14.73;;;;;;;;;;5126578;27;20023;-45
2022/01/06 07:53:04;;;;;;;19.20;13.02;;;;;;;;;;5128306;27;20072;-47
2022/01/06 07:55:29;;;;;;;24.75;18.88;;;;;;;;;;5128360;27;20019;-42
2022/01/06 07:57:54;;;;;;;32.97;28.00;;;;;;;;;;5127100;27;20023;-45
2022/01/06 08:00:21;;;;;;;31.33;22.13;;;;;;;;;;5127957;27;20712;-49
2022/01/06 08:02:46;;;;;;;31.83;21.25;;;;;;;;;;5128081;27;20054;-42
2022/01/06 08:05:13;;;;;;;20.52;18.55;;;;;;;;;;5126915;27;20706;-45
2022/01/06 08:07:39;;;;;;;27.15;18.40;;;;;;;;;;5127113;27;20026;-46
2022/01/06 08:10:05;;;;;;;27.65;21.92;;;;;;;;;;5127446;27;20027;-44
2022/01/06 08:12:30;;;;;;;31.73;20.80;;;;;;;;;;5128689;27;20675;-48
2022/01/06 08:14:56;;;;;;;23.70;19.65;;;;;;;;;;5126442;27;20050;-46
2022/01/06 08:17:21;;;;;;;25.42;19.20;;;;;;;;;;5127539;27;20062;-56
2022/01/06 08:19:47;;;;;;;24.23;19.58;;;;;;;;;;5126507;27;20059;-61
2022/01/06 08:22:12;;;;;;;23.75;18.90;;;;;;;;;;5127573;27;20026;-67
2022/01/06 08:24:38;;;;;;;22.38;17.20;;;;;;;;;;5127446;27;20023;-63
2022/01/06 08:27:08;;;;;;;21.98;15.18;;;;;;;;;;5127823;27;20538;-57
2022/01/06 08:29:34;;;;;;;32.85;18.20;;;;;;;;;;5127797;27;20639;-46
2022/01/06 08:31:59;;;;;;;15.90;8.60;;;;;;;;;;5120542;27;20126;-60
2022/01/06 08:34:24;;;;;;;9.05;6.85;;;;;;;;;;5126848;27;20102;-54
2022/01/06 08:36:52;;;;;;;12.45;9.55;;;;;;;;;;5126811;27;20023;-60
2022/01/06 08:39:18;;;;;;;14.88;9.20;;;;;;;;;;5127409;27;20026;-61
2022/01/06 08:41:43;;;;;;;14.20;11.10;;;;;;;;;;5127207;27;20023;-53
2022/01/06 08:44:09;;;;;;;19.10;16.63;;;;;;;;;;5126343;27;20056;-57
2022/01/06 08:46:34;;;;;;;22.23;16.67;;;;;;;;;;5127597;27;20022;-52
2022/01/06 08:48:59;;;;;;;19.27;17.27;;;;;;;;;;5126243;27;20134;-43
2022/01/06 08:51:25;;;;;;;30.30;26.95;;;;;;;;;;5122475;27;20038;-51
2022/01/06 08:53:50;;;;;;;47.78;34.38;;;;;;;;;;5111540;27;20674;-51
2022/01/06 08:56:15;;;;;;;40.03;32.00;;;;;;;;;;5123131;27;20046;-56
2022/01/06 08:58:40;;;;;;;35.45;27.10;;;;;;;;;;5122810;28;20030;-57
2022/01/06 09:01:06;;;;;;;39.78;29.25;;;;;;;;;;5124457;28;20441;-54
2022/01/06 09:03:31;;;;;;;53.92;32.38;;;;;;;;;;5122169;28;20381;-51
2022/01/06 09:05:56;;;;;;;50.80;35.40;;;;;;;;;;5123391;28;20847;-50
2022/01/06 09:08:22;;;;;;;44.35;27.75;;;;;;;;;;5121639;28;20022;-53
2022/01/06 09:10:47;;;;;;;31.08;25.17;;;;;;;;;;5122371;28;20072;-55
2022/01/06 09:13:13;;;;;;;39.90;32.10;;;;;;;;;;5122393;28;20577;-55
2022/01/06 09:15:38;;;;;;;39.58;34.90;;;;;;;;;;5123939;28;20019;-54
2022/01/06 09:18:03;;;;;;;63.92;42.70;;;;;;;;;;5123385;28;20026;-57
2022/01/06 09:20:32;;;;;;;47.97;34.92;;;;;;;;;;5122783;27;20681;-58
2022/01/06 09:22:57;;;;;;;49.53;36.53;;;;;;;;;;5121169;28;20127;-56
2022/01/06 09:25:22;;;;;;;49.50;39.53;;;;;;;;;;5121651;28;20127;-58
2022/01/06 09:27:48;;;;;;;35.40;31.40;;;;;;;;;;5123396;28;20047;-57
2022/01/06 09:30:13;;;;;;;27.95;24.98;;;;;;;;;;5118630;28;20069;-61
2022/01/06 09:32:39;;;;;;;33.22;24.05;;;;;;;;;;5121148;28;20079;-64
2022/01/06 09:35:04;;;;;;;40.70;35.95;;;;;;;;;;5121871;28;20094;-63
2022/01/06 09:37:29;;;;;;;120.75;85.13;;;;;;;;;;5123433;28;20597;-64
2022/01/06 09:39:55;;;;;;;164.90;121.63;;;;;;;;;;5123734;28;20058;-63
2022/01/06 09:42:20;;;;;;;220.48;153.07;;;;;;;;;;5122228;28;20047;-63
2022/01/06 09:44:50;;;;;;;135.23;104.38;;;;;;;;;;5122396;28;20031;-63
2022/01/06 09:47:16;;;;;;;122.28;89.10;;;;;;;;;;5123481;28;20046;-63
2022/01/06 09:49:45;;;;;;;99.82;74.72;;;;;;;;;;5126768;27;20020;-63
2022/01/06 09:52:10;;;;;;;153.80;113.22;;;;;;;;;;5120892;27;20019;-63
2022/01/06 09:54:36;;;;;;;181.48;128.43;;;;;;;;;;5126691;27;20489;-63
2022/01/06 09:57:02;;;;;;;108.65;87.72;;;;;;;;;;5125589;27;20571;-64
2022/01/06 09:59:28;;;;;;;68.53;53.45;;;;;;;;;;5125750;27;20037;-63
2022/01/06 10:01:53;;;;;;;94.45;70.20;;;;;;;;;;5126131;27;20021;-63
2022/01/06 10:04:28;;;;;;;52.50;44.30;;;;;;;;;;5125571;27;20473;-63
2022/01/06 10:07:13;;;;;;;31.80;23.05;;;;;;;;;;5123894;27;20023;-62
2022/01/06 10:09:40;;;;;;;20.50;15.60;;;;;;;;;;5123966;27;20031;-62
2022/01/06 10:12:11;;;;;;;31.00;15.77;;;;;;;;;;5126315;27;20030;-62
2022/01/06 10:14:55;;;;;;;26.48;15.65;;;;;;;;;;5125932;27;20031;-62
2022/01/06 10:17:31;;;;;;;21.25;8.73;;;;;;;;;;5124718;27;20480;-62
2022/01/06 10:20:07;;;;;;;15.45;8.80;;;;;;;;;;5124230;27;20046;-62
2022/01/06 10:22:41;;;;;;;28.38;14.57;;;;;;;;;;5124956;27;20528;-61
2022/01/06 10:25:07;;;;;;;17.95;10.85;;;;;;;;;;5124427;27;20038;-62
2022/01/06 10:27:32;;;;;;;12.05;5.78;;;;;;;;;;5125255;27;20513;-61
2022/01/06 10:29:58;;;;;;;6.47;3.03;;;;;;;;;;5125728;27;20641;-61
2022/01/06 10:32:27;;;;;;;11.43;6.25;;;;;;;;;;5127669;27;20518;-61
2022/01/06 10:34:54;;;;;;;13.25;10.90;;;;;;;;;;5126064;27;20591;-61
2022/01/06 10:37:20;;;;;;;21.63;18.77;;;;;;;;;;5126574;27;20063;-61
2022/01/06 10:39:46;;;;;;;11.40;6.60;;;;;;;;;;5124135;27;20776;-61
2022/01/06 10:42:12;;;;;;;7.03;5.20;;;;;;;;;;5127884;27;20089;-61
2022/01/06 10:45:10;;;;;;;9.55;4.45;;;;;;;;;;5125726;27;20517;-61
2022/01/06 10:47:39;;;;;;;17.48;4.18;;;;;;;;;;5104165;27;20081;-61
2022/01/06 10:50:07;;;;;;;16.83;5.82;;;;;;;;;;5124822;27;20019;-61
2022/01/06 10:52:32;;;;;;;10.35;3.33;;;;;;;;;;5123787;27;20011;-53
2022/01/06 10:55:07;;;;;;;9.38;3.67;;;;;;;;;;5121303;27;20509;-57
2022/01/06 10:57:32;;;;;;;12.32;7.93;;;;;;;;;;5124197;27;20102;-57
2022/01/06 10:59:58;;;;;;;7.20;4.63;;;;;;;;;;5124719;27;20580;-57
2022/01/06 11:02:25;;;;;;;13.15;5.80;;;;;;;;;;5126295;27;20024;-57
2022/01/06 11:04:50;;;;;;;11.93;2.88;;;;;;;;;;5124459;27;20015;-58
2022/01/06 11:07:16;;;;;;;5.05;2.30;;;;;;;;;;5125634;27;20053;-57
2022/01/06 11:09:46;;;;;;;4.50;2.70;;;;;;;;;;5125726;27;20015;-57
2022/01/06 11:12:27;;;;;;;5.35;4.28;;;;;;;;;;5125162;27;20514;-58
2022/01/06 11:14:53;;;;;;;5.25;2.60;;;;;;;;;;5124335;27;20042;-60
2022/01/06 11:17:21;;;;;;;16.40;3.20;;;;;;;;;;5125383;27;20019;-59
2022/01/06 11:19:47;;;;;;;5.60;3.03;;;;;;;;;;5125952;27;20114;-59
2022/01/06 11:22:13;;;;;;;14.63;4.60;;;;;;;;;;5126419;27;20023;-59
2022/01/06 11:24:39;;;;;;;9.82;7.40;;;;;;;;;;5124970;27;20026;-60
2022/01/06 11:27:10;;;;;;;10.00;6.45;;;;;;;;;;5125186;27;20110;-60
2022/01/06 11:29:40;;;;;;;11.10;6.03;;;;;;;;;;5123011;27;20015;-59
2022/01/06 11:32:22;;;;;;;7.10;3.07;;;;;;;;;;5125379;27;20048;-60
2022/01/06 11:34:47;;;;;;;;;;;;;;;;;;5125747;27;20874;-61
2022/01/06 11:37:13;;;;;;;13.55;3.47;;;;;;;;;;5124141;27;20069;-60
2022/01/06 11:39:39;;;;;;;5.38;1.88;;;;;;;;;;5125685;27;20027;-61
2022/01/06 11:42:25;;;;;;;10.82;3.05;;;;;;;;;;5124742;27;20536;-59
2022/01/06 11:44:52;;;;;;;12.85;5.82;;;;;;;;;;5125357;27;20019;-62
2022/01/06 11:47:27;;;;;;;7.28;4.53;;;;;;;;;;5123233;27;20047;-61
2022/01/06 11:49:53;;;;;;;6.90;4.68;;;;;;;;;;5125750;27;20103;-61
2022/01/06 11:52:18;;;;;;;14.52;4.13;;;;;;;;;;5125014;27;20599;-61
2022/01/06 11:54:46;;;;;;;12.80;2.75;;;;;;;;;;5125279;27;20031;-62
2022/01/06 11:57:11;;;;;;;15.73;9.73;;;;;;;;;;5124307;27;20073;-61
2022/01/06 11:59:37;;;;;;;6.85;3.20;;;;;;;;;;5106203;27;20394;-61
2022/01/06 12:02:03;;;;;;;7.43;2.80;;;;;;;;;;5123732;27;20098;-61
2022/01/06 12:04:28;;;;;;;6.28;2.65;;;;;;;;;;5125367;27;20548;-62
2022/01/06 12:07:04;;;;;;;15.05;3.60;;;;;;;;;;5124797;27;20023;-62
2022/01/06 12:09:29;;;;;;;13.50;4.80;;;;;;;;;;5124340;27;20007;-61
2022/01/06 12:12:16;;;;;;;9.40;3.95;;;;;;;;;;5125325;27;20019;-62
2022/01/06 12:14:42;;;;;;;11.95;3.28;;;;;;;;;;5122811;27;20476;-62
2022/01/06 12:17:08;;;;;;;4.90;3.03;;;;;;;;;;5124439;27;20027;-61
2022/01/06 12:19:34;;;;;;;13.48;1.98;;;;;;;;;;5124441;27;20162;-62
2022/01/06 12:21:59;;;;;;;3.40;2.15;;;;;;;;;;5124737;27;20086;-62
2022/01/06 12:24:25;;;;;;;4.65;2.80;;;;;;;;;;5124727;27;20130;-62
2022/01/06 12:26:50;;;;;;;3.85;1.50;;;;;;;;;;5125219;27;20091;-61
2022/01/06 12:29:19;;;;;;;15.40;6.68;;;;;;;;;;5124294;27;20019;-61
2022/01/06 12:31:44;;;;;;;11.95;8.98;;;;;;;;;;5123440;27;20030;-60
2022/01/06 12:34:11;;;;;;;32.97;27.08;;;;;;;;;;5123881;27;20080;-61
2022/01/06 12:36:37;;;;;;;19.52;17.65;;;;;;;;;;5123239;27;20643;-67
2022/01/06 12:39:07;;;;;;;44.83;40.58;;;;;;;;;;5123423;27;20027;-67
2022/01/06 12:41:34;;;;;;;37.33;32.92;;;;;;;;;;5125014;27;20023;-60
2022/01/06 12:43:59;;;;;;;8.77;7.88;;;;;;;;;;5124732;27;20501;-66
2022/01/06 12:46:32;;;;;;;5.75;3.67;;;;;;;;;;5124669;27;20128;-72
2022/01/06 12:48:57;;;;;;;10.48;7.93;;;;;;;;;;5123406;27;20018;-72
2022/01/06 12:51:24;;;;;;;3.17;2.70;;;;;;;;;;5124933;27;20019;-73
2022/01/06 12:53:50;;;;;;;8.18;3.15;;;;;;;;;;5124148;27;20091;-72
2022/01/06 12:56:26;;;;;;;6.75;5.13;;;;;;;;;;5124651;27;20023;-72
2022/01/06 12:58:54;;;;;;;7.68;4.47;;;;;;;;;;5124003;27;20042;-75
2022/01/06 13:01:19;;;;;;;14.48;5.05;;;;;;;;;;5122621;28;20223;-71
2022/01/06 13:03:49;;;;;;;15.30;7.18;;;;;;;;;;5124090;27;20019;-72
2022/01/06 13:06:15;;;;;;;9.98;5.05;;;;;;;;;;5124659;28;20030;-52
2022/01/06 13:08:50;;;;;;;12.32;4.65;;;;;;;;;;5124153;27;20019;-51
2022/01/06 13:11:16;;;;;;;5.03;3.75;;;;;;;;;;5124698;28;20038;-51
2022/01/06 13:13:47;;;;;;;5.10;3.03;;;;;;;;;;5123726;28;20402;-63
2022/01/06 13:16:13;;;;;;;;;;;;;;;;;;5124475;28;20042;-55
2022/01/06 13:18:38;;;;;;;10.07;3.53;;;;;;;;;;5124537;27;19911;-60
2022/01/06 13:21:03;;;;;;;8.43;4.40;;;;;;;;;;5124177;27;20123;-56
2022/01/06 13:26:07;;;;;;;4.82;2.65;;;;;;;;;;5128730;27;20099;-60
2022/01/06 13:28:32;;;;;;;15.10;4.15;;;;;;;;;;5116588;27;20282;-57
2022/01/06 13:30:58;;;;;;;7.82;3.85;;;;;;;;;;5124674;27;20479;-65
2022/01/06 13:33:26;;;;;;;6.97;4.22;;;;;;;;;;5126842;27;20140;-56
2022/01/06 13:36:02;;;;;;;54.75;49.92;;;;;;;;;;5128111;27;20031;-59
2022/01/06 13:38:31;;;;;;;18.90;9.18;;;;;;;;;;5127566;27;20038;-58
2022/01/06 13:40:58;;;;;;;14.57;6.93;;;;;;;;;;5126298;27;20029;-63
2022/01/06 13:43:25;;;;;;;17.23;7.70;;;;;;;;;;5127078;27;20042;-59
2022/01/06 13:45:51;;;;;;;22.35;6.97;;;;;;;;;;5127110;27;20015;-61
2022/01/06 13:48:38;;;;;;;7.32;4.63;;;;;;;;;;5128522;27;20411;-61
2022/01/06 13:51:17;;;;;;;15.70;7.90;;;;;;;;;;5107141;27;20043;-61
2022/01/06 13:53:46;;;;;;;14.38;7.15;;;;;;;;;;5124074;27;20034;-65
2022/01/06 13:56:11;;;;;;;13.63;5.25;;;;;;;;;;5129049;27;20088;-62
2022/01/06 13:58:37;;;;;;;7.35;2.63;;;;;;;;;;5127426;27;20566;-61
2022/01/06 14:01:04;;;;;;;14.48;3.78;;;;;;;;;;5127753;27;20026;-59
2022/01/06 14:03:31;;;;;;;5.15;3.40;;;;;;;;;;5127006;27;20023;-60
2022/01/06 14:05:57;;;;;;;9.30;3.97;;;;;;;;;;5126025;27;20019;-44
2022/01/06 14:08:23;;;;;;;8.38;4.53;;;;;;;;;;5128419;27;20023;-67
2022/01/06 14:10:48;;;;;;;10.20;4.30;;;;;;;;;;5127333;27;20019;-63
2022/01/06 14:13:13;;;;;;;7.47;3.55;;;;;;;;;;5128083;27;20023;-58
2022/01/06 14:15:39;;;;;;;19.67;13.60;;;;;;;;;;5127667;27;20027;-48
2022/01/06 14:18:04;;;;;;;33.85;28.40;;;;;;;;;;5128063;27;20023;-61
2022/01/06 14:20:29;;;;;;;38.90;32.67;;;;;;;;;;5127373;27;20043;-61
2022/01/06 14:22:55;;;;;;;27.45;24.65;;;;;;;;;;5126244;27;20028;-62
2022/01/06 14:25:20;;;;;;;22.63;14.75;;;;;;;;;;5127313;27;20023;-58
2022/01/06 14:27:45;;;;;;;15.65;10.82;;;;;;;;;;5125806;27;20023;-60
2022/01/06 14:30:11;;;;;;;46.13;39.38;;;;;;;;;;5121926;27;20035;-58
2022/01/06 14:32:37;;;;;;;20.02;12.90;;;;;;;;;;5123845;27;20023;-63
2022/01/06 14:35:03;;;;;;;18.83;11.95;;;;;;;;;;5126608;27;20087;-56
2022/01/06 14:37:28;;;;;;;15.38;9.82;;;;;;;;;;5124719;27;20027;-56
2022/01/06 14:39:54;;;;;;;28.63;19.23;;;;;;;;;;5119810;27;20485;-59
2022/01/06 14:42:19;;;;;;;15.70;11.13;;;;;;;;;;5127356;27;20118;-68